createdAt,value
2022-10-07T00:01:23.599Z,102232.50
2022-10-07T00:03:55.324Z,102227.69
2022-10-07T00:06:23.643Z,102228.94
2022-10-07T00:08:53.694Z,102232.03
2022-10-07T00:11:27.188Z,102237.00
2022-10-07T00:14:03.578Z,102241.13
2022-10-07T00:16:35.280Z,102221.44
2022-10-07T00:19:06.584Z,102218.75
2022-10-07T00:21:44.588Z,102213.78
2022-10-07T00:24:12.226Z,102219.38
2022-10-07T00:26:40.323Z,102219.56
2022-10-07T00:29:14.434Z,102218.31
2022-10-07T00:31:44.545Z,102214.34
2022-10-07T00:34:13.568Z,102213.34
2022-10-07T00:36:45.414Z,102211.88
2022-10-07T00:39:17.790Z,102205.44
2022-10-07T00:41:54.395Z,102208.97
2022-10-07T00:44:50.308Z,102205.00
2022-10-07T00:47:33.237Z,102203.38
2022-10-07T00:50:20.784Z,102197.94
2022-10-07T00:53:05.844Z,102188.16
2022-10-07T00:55:35.981Z,102195.25
2022-10-07T00:58:10.653Z,102194.81
2022-10-07T01:00:41.326Z,102186.09
2022-10-07T01:03:10.069Z,102181.84
2022-10-07T01:05:38.433Z,102171.50
2022-10-07T01:08:06.992Z,102181.63
2022-10-07T01:11:27.094Z,102181.25
2022-10-07T01:14:10.386Z,102175.00
2022-10-07T01:17:09.140Z,102178.47
2022-10-07T01:20:15.740Z,102165.97
2022-10-07T01:23:12.738Z,102162.66
2022-10-07T01:26:08.262Z,102152.94
2022-10-07T01:28:40.221Z,102148.53
2022-10-07T01:31:12.937Z,102148.31
2022-10-07T01:33:44.214Z,102160.50
2022-10-07T01:36:17.244Z,102165.94
2022-10-07T01:38:56.144Z,102165.03
2022-10-07T01:41:25.455Z,102164.66
2022-10-07T01:43:55.369Z,102174.63
2022-10-07T01:46:25.822Z,102163.84
2022-10-07T01:48:55.610Z,102156.41
2022-10-07T01:51:28.659Z,102151.69
2022-10-07T01:54:09.487Z,102154.38
2022-10-07T01:56:37.964Z,102157.31
2022-10-07T01:59:26.162Z,102153.94
2022-10-07T02:02:04.633Z,102150.22
2022-10-07T02:05:03.511Z,102141.72
2022-10-07T02:07:36.181Z,102142.94
2022-10-07T02:10:16.935Z,102130.56
2022-10-07T02:13:21.070Z,102127.22
2022-10-07T02:15:59.881Z,102119.53
2022-10-07T02:18:31.962Z,102118.06
2022-10-07T02:21:04.555Z,102116.19
2022-10-07T02:23:37.665Z,102118.84
2022-10-07T02:26:15.306Z,102120.94
2022-10-07T02:28:54.359Z,102122.34
2022-10-07T02:31:52.774Z,102112.03
2022-10-07T02:34:39.849Z,102118.84
2022-10-07T02:37:39.140Z,102116.34
2022-10-07T02:40:26.807Z,102111.56
2022-10-07T02:43:10.383Z,102106.59
2022-10-07T02:45:47.534Z,102101.03
2022-10-07T02:48:38.321Z,102101.81
2022-10-07T02:51:11.941Z,102099.94
2022-10-07T02:53:41.929Z,102094.09
2022-10-07T02:56:10.319Z,102092.88
2022-10-07T02:58:46.192Z,102090.63
2022-10-07T03:01:21.703Z,102089.16
2022-10-07T03:03:50.800Z,102087.53
2022-10-07T03:06:19.599Z,102080.44
2022-10-07T03:08:48.674Z,102073.19
2022-10-07T03:11:17.300Z,102083.34
2022-10-07T03:13:50.509Z,102076.75
2022-10-07T03:16:20.460Z,102077.34
2022-10-07T03:18:48.020Z,102082.75
2022-10-07T03:21:40.880Z,102074.88
2022-10-07T03:24:09.575Z,102075.50
2022-10-07T03:26:42.992Z,102075.09
2022-10-07T03:29:14.506Z,102075.91
2022-10-07T03:31:43.287Z,102073.22
2022-10-07T03:34:11.926Z,102071.56
2022-10-07T03:36:43.265Z,102066.97
2022-10-07T03:39:12.747Z,102073.22
2022-10-07T03:41:42.778Z,102065.88
2022-10-07T03:44:12.294Z,102074.22
2022-10-07T03:46:40.737Z,102069.66
2022-10-07T03:49:09.070Z,102067.81
2022-10-07T03:51:37.455Z,102058.81
2022-10-07T03:54:11.522Z,102055.97
2022-10-07T03:56:40.721Z,102056.81
2022-10-07T03:59:08.760Z,102057.22
2022-10-07T04:01:37.926Z,102063.41
2022-10-07T04:04:06.569Z,102066.91
2022-10-07T04:06:37.394Z,102057.41
2022-10-07T04:09:10.181Z,102049.31
2022-10-07T04:11:41.254Z,102040.63
2022-10-07T04:14:09.838Z,102058.03
2022-10-07T04:16:48.727Z,102040.66
2022-10-07T04:19:26.532Z,102039.78
2022-10-07T04:22:08.458Z,102037.88
2022-10-07T04:25:08.889Z,102021.75
2022-10-07T04:27:51.622Z,102025.63
2022-10-07T04:30:22.393Z,102031.88
2022-10-07T04:32:51.609Z,102033.72
2022-10-07T04:35:23.382Z,102040.91
2022-10-07T04:37:55.001Z,102036.00
2022-10-07T04:40:28.116Z,102045.97
2022-10-07T04:43:15.030Z,102046.00
2022-10-07T04:45:44.173Z,102036.47
2022-10-07T04:48:13.002Z,102035.66
2022-10-07T04:50:41.662Z,102031.50
2022-10-07T04:53:12.869Z,102036.06
2022-10-07T04:55:44.819Z,102026.97
2022-10-07T04:58:14.303Z,102027.59
2022-10-07T05:00:48.511Z,102016.41
2022-10-07T05:03:20.232Z,102017.00
2022-10-07T05:05:53.306Z,102010.38
2022-10-07T05:08:23.401Z,102006.44
2022-10-07T05:10:58.643Z,102010.16
2022-10-07T05:13:30.729Z,102010.34
2022-10-07T05:16:01.784Z,102009.34
2022-10-07T05:18:33.995Z,102001.69
2022-10-07T05:21:10.046Z,102007.28
2022-10-07T05:23:43.522Z,102011.59
2022-10-07T05:26:25.174Z,102013.66
2022-10-07T05:29:01.856Z,102002.47
2022-10-07T05:31:36.760Z,102000.63
2022-10-07T05:34:06.211Z,101998.75
2022-10-07T05:36:35.358Z,102004.78
2022-10-07T05:39:05.988Z,102006.03
2022-10-07T05:41:48.842Z,102013.72
2022-10-07T05:44:20.660Z,102016.84
2022-10-07T05:46:53.094Z,102015.59
2022-10-07T05:49:27.902Z,102019.50
2022-10-07T05:51:59.279Z,102021.53
2022-10-07T05:54:27.948Z,102016.34
2022-10-07T05:56:58.628Z,102014.28
2022-10-07T05:59:36.277Z,102016.19
2022-10-07T06:02:09.875Z,102018.25
2022-10-07T06:04:39.374Z,102010.81
2022-10-07T06:07:09.002Z,102016.00
2022-10-07T06:09:55.784Z,102017.28
2022-10-07T06:12:45.891Z,102023.47
2022-10-07T06:15:14.902Z,102022.00
2022-10-07T06:17:53.252Z,102022.00
2022-10-07T06:20:22.015Z,102012.47
2022-10-07T06:22:54.649Z,102014.09
2022-10-07T06:25:22.586Z,102010.16
2022-10-07T06:27:54.083Z,102014.09
2022-10-07T06:30:24.315Z,102016.59
2022-10-07T06:32:52.065Z,102015.75
2022-10-07T06:35:20.356Z,102023.22
2022-10-07T06:37:50.391Z,102031.88
2022-10-07T06:40:19.312Z,102042.28
2022-10-07T06:42:47.786Z,102043.94
2022-10-07T06:45:34.471Z,102047.44
2022-10-07T06:48:02.935Z,102044.28
2022-10-07T06:50:32.144Z,102050.13
2022-10-07T06:53:00.888Z,102049.47
2022-10-07T06:55:31.904Z,102061.50
2022-10-07T06:58:00.336Z,102062.13
2022-10-07T07:00:39.309Z,102056.53
2022-10-07T07:03:07.337Z,102060.50
2022-10-07T07:05:41.407Z,102059.34
2022-10-07T07:08:17.611Z,102055.66
2022-10-07T07:10:46.531Z,102051.69
2022-10-07T07:13:15.148Z,102044.13
2022-10-07T07:15:43.827Z,102045.34
2022-10-07T07:18:12.309Z,102048.66
2022-10-07T07:20:40.900Z,102042.19
2022-10-07T07:23:16.370Z,102044.50
2022-10-07T07:25:46.733Z,102048.41
2022-10-07T07:28:19.462Z,102056.94
2022-10-07T07:30:49.757Z,102058.94
2022-10-07T07:33:21.664Z,102064.56
2022-10-07T07:35:49.531Z,102063.03
2022-10-07T07:38:24.808Z,102077.16
2022-10-07T07:40:55.482Z,102073.66
2022-10-07T07:43:24.129Z,102069.75
2022-10-07T07:45:52.964Z,102074.06
2022-10-07T07:48:20.711Z,102088.31
2022-10-07T07:50:48.723Z,102085.22
2022-10-07T07:53:25.191Z,102085.84
2022-10-07T07:55:58.650Z,102090.16
2022-10-07T07:58:30.002Z,102088.25
2022-10-07T08:01:08.814Z,102087.28
2022-10-07T08:03:38.245Z,102082.13
2022-10-07T08:06:08.359Z,102082.13
2022-10-07T08:08:36.108Z,102086.84
2022-10-07T08:11:11.979Z,102092.63
2022-10-07T08:13:42.708Z,102090.09
2022-10-07T08:16:16.188Z,102092.03
2022-10-07T08:18:47.655Z,102104.28
2022-10-07T08:21:20.435Z,102100.06
2022-10-07T08:23:56.783Z,102094.28
2022-10-07T08:26:30.575Z,102105.75
2022-10-07T08:29:01.831Z,102101.84
2022-10-07T08:31:30.332Z,102099.47
2022-10-07T08:34:00.413Z,102097.81
2022-10-07T08:36:38.182Z,102101.28
2022-10-07T08:39:09.566Z,102093.97
2022-10-07T08:41:53.285Z,102093.63
2022-10-07T08:44:49.785Z,102083.59
2022-10-07T08:47:51.565Z,102083.69
2022-10-07T08:50:20.050Z,102073.72
2022-10-07T08:53:08.677Z,102067.81
2022-10-07T08:55:59.465Z,102069.25
2022-10-07T08:58:44.133Z,102072.88
2022-10-07T09:01:22.713Z,102067.06
2022-10-07T09:04:13.255Z,102068.91
2022-10-07T09:06:47.776Z,102060.44
2022-10-07T09:09:39.697Z,102055.44
2022-10-07T09:12:18.463Z,102045.19
2022-10-07T09:14:48.513Z,102046.22
2022-10-07T09:17:35.017Z,102031.34
2022-10-07T09:20:14.148Z,102039.81
2022-10-07T09:22:44.824Z,102029.44
2022-10-07T09:25:12.055Z,102030.91
2022-10-07T09:27:39.914Z,102025.16
2022-10-07T09:30:12.686Z,102032.63
2022-10-07T09:32:43.629Z,102029.06
2022-10-07T09:35:22.559Z,102036.16
2022-10-07T09:38:29.314Z,102031.00
2022-10-07T09:41:25.799Z,102026.25
2022-10-07T09:46:49.571Z,102028.78
2022-10-07T09:49:28.868Z,102013.41
2022-10-07T09:52:08.685Z,102012.19
2022-10-07T09:54:37.364Z,102005.16
2022-10-07T09:57:06.495Z,101988.53
2022-10-07T09:59:38.560Z,101980.22
2022-10-07T10:02:29.026Z,101971.13
2022-10-07T10:04:58.518Z,101975.44
2022-10-07T10:07:27.717Z,101970.88
2022-10-07T10:10:04.848Z,101973.31
2022-10-07T10:12:47.063Z,101972.50
2022-10-07T10:15:25.714Z,101988.44
2022-10-07T10:17:58.984Z,101992.63
2022-10-07T10:20:33.070Z,101994.50
2022-10-07T10:23:10.536Z,101997.59
2022-10-07T10:27:19.391Z,101989.06
2022-10-07T10:30:15.927Z,101985.31
2022-10-07T10:33:07.417Z,101983.69
2022-10-07T10:36:02.464Z,101976.88
2022-10-07T10:38:34.221Z,101972.25
2022-10-07T10:41:26.821Z,101966.06
2022-10-07T10:44:40.066Z,101972.69
2022-10-07T10:47:13.397Z,101976.88
2022-10-07T10:50:15.479Z,101981.00
2022-10-07T10:52:59.203Z,101985.41
2022-10-07T10:56:26.623Z,101984.16
2022-10-07T10:59:09.742Z,101977.97
2022-10-07T11:01:43.224Z,101987.94
2022-10-07T11:04:11.047Z,101994.13
2022-10-07T11:06:42.924Z,101992.47
2022-10-07T11:09:52.895Z,101984.41
2022-10-07T11:12:37.469Z,101978.78
2022-10-07T11:15:25.093Z,101962.81
2022-10-07T11:18:23.535Z,101964.91
2022-10-07T11:20:59.720Z,101955.53
2022-10-07T11:24:23.372Z,101958.47
2022-10-07T11:27:09.118Z,101957.63
2022-10-07T11:29:49.977Z,101948.72
2022-10-07T11:32:43.704Z,101952.03
2022-10-07T11:35:34.433Z,101953.47
2022-10-07T11:38:06.994Z,101953.06
2022-10-07T11:41:08.720Z,101948.69
2022-10-07T11:43:51.209Z,101946.00
2022-10-07T11:46:39.988Z,101935.03
2022-10-07T11:49:45.793Z,101928.38
2022-10-07T11:52:25.110Z,101929.41
2022-10-07T11:55:08.880Z,101921.09
2022-10-07T11:57:43.665Z,101906.59
2022-10-07T12:00:44.182Z,101896.00
2022-10-07T12:03:28.592Z,101887.06
2022-10-07T12:05:58.749Z,101899.75
2022-10-07T12:08:45.223Z,101884.19
2022-10-07T12:11:36.390Z,101876.69
2022-10-07T12:14:32.951Z,101873.38
2022-10-07T12:17:21.933Z,101862.78
2022-10-07T12:20:40.034Z,101856.97
2022-10-07T12:23:44.194Z,101853.25
2022-10-07T12:26:53.845Z,101838.72
2022-10-07T12:30:03.400Z,101836.59
2022-10-07T12:33:17.948Z,101835.47
2022-10-07T13:03:29.303Z,101797.22
2022-10-07T13:47:08.283Z,101745.84
2022-10-07T13:53:35.367Z,101735.97
2022-10-07T13:56:15.278Z,101742.84
2022-10-07T13:58:46.307Z,101735.25
2022-10-07T14:01:34.531Z,101728.66
2022-10-07T14:05:23.524Z,101739.72
2022-10-07T14:08:30.808Z,101726.66
2022-10-07T14:11:07.558Z,101725.59
2022-10-07T14:13:44.056Z,101727.91
2022-10-07T14:16:30.498Z,101714.78
2022-10-07T14:19:00.941Z,101730.22
2022-10-07T14:21:30.899Z,101719.63
2022-10-07T14:24:08.817Z,101725.59
2022-10-07T14:26:48.178Z,101720.44
2022-10-07T14:29:35.729Z,101724.50
2022-10-07T14:32:37.123Z,101728.19
2022-10-07T14:35:20.698Z,101722.78
2022-10-07T14:37:49.328Z,101720.97
2022-10-07T14:40:52.465Z,101716.59
2022-10-07T14:43:45.332Z,101714.72
2022-10-07T14:46:25.939Z,101715.25
2022-10-07T14:48:54.443Z,101709.59
2022-10-07T14:51:29.827Z,101702.47
2022-10-07T14:54:03.419Z,101708.72
2022-10-07T14:56:40.219Z,101702.56
2022-10-07T14:59:14.710Z,101703.56
2022-10-07T15:01:44.246Z,101690.59
2022-10-07T15:04:15.438Z,101679.31
2022-10-07T15:06:46.321Z,101687.16
2022-10-07T15:09:17.555Z,101683.41
2022-10-07T15:11:45.302Z,101680.44
2022-10-07T15:14:12.963Z,101674.56
2022-10-07T15:16:42.003Z,101660.38
2022-10-07T15:19:12.168Z,101667.50
2022-10-07T15:21:39.868Z,101664.44
2022-10-07T15:24:07.288Z,101652.56
2022-10-07T15:26:35.531Z,101656.63
2022-10-07T15:29:03.241Z,101657.25
2022-10-07T15:31:30.813Z,101658.06
2022-10-07T15:33:59.077Z,101651.00
2022-10-07T15:36:30.695Z,101655.53
2022-10-07T15:39:03.245Z,101654.66
2022-10-07T15:41:38.731Z,101665.06
2022-10-07T15:44:19.449Z,101655.88
2022-10-07T15:46:53.352Z,101650.03
2022-10-07T15:49:20.974Z,101658.97
2022-10-07T15:51:48.677Z,101662.66
2022-10-07T15:54:16.696Z,101661.84
2022-10-07T15:56:45.619Z,101661.84
2022-10-07T15:59:20.470Z,101661.00
2022-10-07T16:01:52.188Z,101664.16
2022-10-07T16:04:23.604Z,101664.75
2022-10-07T16:06:55.240Z,101667.41
2022-10-07T16:09:26.943Z,101664.13
2022-10-07T16:11:54.770Z,101662.16
2022-10-07T16:14:25.089Z,101653.69
2022-10-07T16:16:53.194Z,101653.44
2022-10-07T16:19:21.131Z,101652.75
2022-10-07T16:21:48.536Z,101657.13
2022-10-07T16:24:18.465Z,101653.97
2022-10-07T16:26:47.465Z,101654.72
2022-10-07T16:29:39.111Z,101651.94
2022-10-07T16:32:11.300Z,101649.31
2022-10-07T16:34:43.762Z,101645.78
2022-10-07T16:37:13.167Z,101649.78
2022-10-07T16:39:40.598Z,101653.06
2022-10-07T16:42:08.412Z,101653.28
2022-10-07T16:44:36.403Z,101656.38
2022-10-07T16:47:04.061Z,101660.13
2022-10-07T16:49:31.818Z,101655.69
2022-10-07T16:51:59.662Z,101652.38
2022-10-07T16:54:30.137Z,101655.69
2022-10-07T16:57:00.924Z,101650.75
2022-10-07T16:59:28.644Z,101653.69
2022-10-07T17:01:57.167Z,101650.75
2022-10-07T17:04:25.780Z,101649.91
2022-10-07T17:06:54.593Z,101651.19
2022-10-07T17:09:28.350Z,101640.34
2022-10-07T17:11:57.625Z,101645.34
2022-10-07T17:14:27.612Z,101642.25
2022-10-07T17:16:57.497Z,101641.78
2022-10-07T17:19:28.338Z,101649.09
2022-10-07T17:21:59.895Z,101643.91
2022-10-07T17:24:54.834Z,101653.22
2022-10-07T17:27:29.868Z,101650.13
2022-10-07T17:29:57.796Z,101654.50
2022-10-07T17:32:32.311Z,101653.88
2022-10-07T17:35:09.941Z,101650.38
2022-10-07T17:37:39.980Z,101642.91
2022-10-07T17:40:08.602Z,101643.78
2022-10-07T17:42:46.836Z,101644.84
2022-10-07T17:49:13.017Z,101641.16
2022-10-07T17:56:19.106Z,101637.25
2022-10-07T17:59:46.521Z,101640.03
2022-10-07T18:02:29.499Z,101640.25
2022-10-07T18:10:04.846Z,101651.56
2022-10-07T18:13:23.671Z,101657.13
2022-10-07T18:17:01.793Z,101653.34
2022-10-07T18:20:18.660Z,101661.03
2022-10-07T18:23:12.956Z,101652.13
2022-10-07T18:36:08.284Z,101674.81
2022-10-07T18:38:43.332Z,101672.16
2022-10-07T18:41:20.252Z,101672.63
2022-10-07T18:43:56.808Z,101676.59
2022-10-07T18:46:31.035Z,101671.28
2022-10-07T18:48:58.661Z,101692.88
2022-10-07T18:51:26.259Z,101702.81
2022-10-07T18:54:01.727Z,101708.38
2022-10-07T18:56:30.094Z,101713.63
2022-10-07T18:58:58.962Z,101707.78
2022-10-07T19:01:32.099Z,101711.97
2022-10-07T19:04:04.637Z,101708.00
2022-10-07T19:06:50.630Z,101703.41
2022-10-07T19:09:26.793Z,101717.31
2022-10-07T19:11:57.085Z,101706.28
2022-10-07T19:14:28.532Z,101706.47
2022-10-07T19:16:58.039Z,101701.44
2022-10-07T19:19:25.912Z,101702.25
2022-10-07T19:22:04.978Z,101698.72
2022-10-07T19:24:54.847Z,101701.34
2022-10-07T19:27:43.025Z,101700.72
2022-10-07T19:30:34.208Z,101705.13
2022-10-07T19:33:05.243Z,101713.44
2022-10-07T19:35:37.888Z,101709.84
2022-10-07T19:38:25.700Z,101709.72
2022-10-07T19:41:09.785Z,101710.47
2022-10-07T19:43:53.060Z,101710.66
2022-10-07T19:46:26.973Z,101704.03
2022-10-07T19:49:00.785Z,101703.47
2022-10-07T19:51:36.821Z,101700.13
2022-10-07T19:54:20.877Z,101697.25
2022-10-07T19:56:58.623Z,101695.31
2022-10-07T19:59:27.198Z,101699.91
2022-10-07T20:01:58.796Z,101688.47
2022-10-07T20:04:29.338Z,101690.94
2022-10-07T20:06:59.656Z,101681.81
2022-10-07T20:09:27.474Z,101681.59
2022-10-07T20:11:56.304Z,101676.34
2022-10-07T20:14:26.119Z,101671.00
2022-10-07T20:17:02.441Z,101670.34
2022-10-07T20:19:31.268Z,101668.13
2022-10-07T20:22:01.933Z,101684.34
2022-10-07T20:24:30.709Z,101684.78
2022-10-07T20:27:07.127Z,101687.47
2022-10-07T20:29:55.507Z,101688.09
2022-10-07T20:35:24.892Z,101696.19
2022-10-07T20:37:52.968Z,101694.31
2022-10-07T20:40:42.811Z,101694.72
2022-10-07T20:43:30.341Z,101695.13
2022-10-07T20:46:15.174Z,101697.63
2022-10-07T20:48:46.283Z,101696.78
2022-10-07T20:51:14.370Z,101698.47
2022-10-07T20:53:41.646Z,101703.00
2022-10-07T20:56:09.920Z,101702.22
2022-10-07T20:58:37.614Z,101691.00
2022-10-07T21:01:18.713Z,101698.28
2022-10-07T21:03:47.520Z,101693.50
2022-10-07T21:06:21.832Z,101700.41
2022-10-07T21:08:58.912Z,101686.66
2022-10-07T21:11:27.813Z,101696.66
2022-10-07T21:13:56.630Z,101697.06
2022-10-07T21:16:27.123Z,101697.72
2022-10-07T21:18:54.933Z,101694.41
2022-10-07T21:21:23.344Z,101697.19
2022-10-07T21:23:51.894Z,101691.38
2022-10-07T21:26:21.109Z,101686.84
2022-10-07T21:28:53.996Z,101684.97
2022-10-07T21:31:37.838Z,101687.66
2022-10-07T21:34:17.558Z,101681.19
2022-10-07T21:37:21.472Z,101679.97
2022-10-07T21:40:25.460Z,101686.78
2022-10-07T21:42:59.363Z,101692.84
2022-10-07T21:45:34.358Z,101685.53
2022-10-07T21:48:04.965Z,101692.00
2022-10-07T21:50:47.570Z,101689.31
2022-10-07T21:53:58.759Z,101693.53
2022-10-07T21:56:35.950Z,101686.25
2022-10-07T21:59:04.434Z,101686.47
2022-10-07T22:01:33.592Z,101680.06
2022-10-07T22:04:06.031Z,101675.88
2022-10-07T22:07:08.200Z,101669.59
2022-10-07T22:09:36.761Z,101665.47
2022-10-07T22:12:08.529Z,101665.53
2022-10-07T22:14:41.390Z,101655.78
2022-10-07T22:17:12.242Z,101655.00
2022-10-07T22:19:43.781Z,101642.81
2022-10-07T22:22:12.977Z,101646.59
2022-10-07T22:24:41.492Z,101646.97
2022-10-07T22:27:09.567Z,101637.84
2022-10-07T22:29:38.776Z,101637.81
2022-10-07T22:32:06.432Z,101637.78
2022-10-07T22:34:52.337Z,101634.88
2022-10-07T22:37:21.328Z,101640.41
2022-10-07T22:39:52.453Z,101645.41
2022-10-07T22:42:19.830Z,101639.16
2022-10-07T22:44:47.471Z,101640.59
2022-10-07T22:47:26.863Z,101637.09
2022-10-07T22:49:55.573Z,101640.22
2022-10-07T22:52:23.059Z,101636.31
2022-10-07T22:54:51.527Z,101635.47
2022-10-07T22:57:19.713Z,101633.41
2022-10-07T22:59:48.212Z,101623.19
2022-10-07T23:02:15.999Z,101626.78
2022-10-07T23:04:49.244Z,101626.56
2022-10-07T23:07:16.622Z,101619.50
2022-10-07T23:09:50.080Z,101617.06
2022-10-07T23:12:17.424Z,101613.91
2022-10-07T23:14:45.457Z,101611.22
2022-10-07T23:17:13.581Z,101614.78
2022-10-07T23:19:48.393Z,101621.88
2022-10-07T23:22:16.014Z,101619.78
2022-10-07T23:24:43.743Z,101620.00
2022-10-07T23:27:23.673Z,101612.56
2022-10-07T23:29:51.307Z,101607.56
2022-10-07T23:32:20.752Z,101602.22
2022-10-07T23:34:48.549Z,101605.31
2022-10-07T23:37:15.744Z,101610.34
2022-10-07T23:39:44.016Z,101613.03
2022-10-07T23:42:15.094Z,101611.97
2022-10-07T23:44:52.174Z,101611.34
2022-10-07T23:47:23.368Z,101615.06
2022-10-07T23:49:52.507Z,101612.19
2022-10-07T23:52:35.598Z,101600.16
2022-10-07T23:55:04.652Z,101608.84
2022-10-07T23:57:52.512Z,101611.16
